sensor_id;sensor_type;location;lat;lon;timestamp;temperature;humidity
3356;DHT22;1691;52.486;13.374;2023-07-30T00:00:07;17.90;98.70
3356;DHT22;1691;52.486;13.374;2023-07-30T00:02:34;17.90;98.70
3356;DHT22;1691;52.486;13.374;2023-07-30T00:05:01;17.90;98.70
3356;DHT22;1691;52.486;13.374;2023-07-30T00:07:28;17.80;98.70
3356;DHT22;1691;52.486;13.374;2023-07-30T00:09:55;17.80;98.70
3356;DHT22;1691;52.486;13.374;2023-07-30T00:12:22;17.70;98.70
3356;DHT22;1691;52.486;13.374;2023-07-30T00:14:48;17.70;98.70
3356;DHT22;1691;52.486;13.374;2023-07-30T00:17:15;17.70;98.70
3356;DHT22;1691;52.486;13.374;2023-07-30T00:19:42;17.60;98.70
3356;DHT22;1691;52.486;13.374;2023-07-30T00:22:09;17.60;98.70
3356;DHT22;1691;52.486;13.374;2023-07-30T00:24:36;17.60;98.70
3356;DHT22;1691;52.486;13.374;2023-07-30T00:27:03;17.60;98.70
3356;DHT22;1691;52.486;13.374;2023-07-30T00:29:30;17.60;98.70
3356;DHT22;1691;52.486;13.374;2023-07-30T00:31:56;17.60;98.70
3356;DHT22;1691;52.486;13.374;2023-07-30T00:34:23;17.50;98.70
3356;DHT22;1691;52.486;13.374;2023-07-30T00:36:50;17.50;98.70
3356;DHT22;1691;52.486;13.374;2023-07-30T00:39:17;17.50;98.70
3356;DHT22;1691;52.486;13.374;2023-07-30T00:41:44;17.50;98.70
3356;DHT22;1691;52.486;13.374;2023-07-30T00:44:12;17.40;98.70
3356;DHT22;1691;52.486;13.374;2023-07-30T00:46:39;17.40;98.70
3356;DHT22;1691;52.486;13.374;2023-07-30T00:49:06;17.40;98.70
3356;DHT22;1691;52.486;13.374;2023-07-30T00:51:33;17.30;98.70
3356;DHT22;1691;52.486;13.374;2023-07-30T00:54:01;17.30;98.70
3356;DHT22;1691;52.486;13.374;2023-07-30T00:56:28;17.30;98.70
3356;DHT22;1691;52.486;13.374;2023-07-30T00:58:56;17.30;98.70
3356;DHT22;1691;52.486;13.374;2023-07-30T01:01:23;17.30;98.70
3356;DHT22;1691;52.486;13.374;2023-07-30T01:03:50;17.30;98.70
3356;DHT22;1691;52.486;13.374;2023-07-30T01:06:18;17.30;98.70
3356;DHT22;1691;52.486;13.374;2023-07-30T01:08:48;17.30;98.70
3356;DHT22;1691;52.486;13.374;2023-07-30T01:11:15;17.30;98.70
3356;DHT22;1691;52.486;13.374;2023-07-30T01:13:42;17.30;98.70
3356;DHT22;1691;52.486;13.374;2023-07-30T01:16:13;17.20;98.70
3356;DHT22;1691;52.486;13.374;2023-07-30T01:18:39;17.20;98.70
3356;DHT22;1691;52.486;13.374;2023-07-30T01:21:06;17.20;98.70
3356;DHT22;1691;52.486;13.374;2023-07-30T01:23:33;17.20;98.70
3356;DHT22;1691;52.486;13.374;2023-07-30T01:26:08;17.10;98.70
3356;DHT22;1691;52.486;13.374;2023-07-30T01:28:42;17.10;98.70
3356;DHT22;1691;52.486;13.374;2023-07-30T01:31:12;17.10;98.70
3356;DHT22;1691;52.486;13.374;2023-07-30T01:33:41;17.10;98.70
3356;DHT22;1691;52.486;13.374;2023-07-30T01:36:10;17.10;98.70
3356;DHT22;1691;52.486;13.374;2023-07-30T01:38:40;17.10;98.70
3356;DHT22;1691;52.486;13.374;2023-07-30T01:41:07;17.00;98.70
3356;DHT22;1691;52.486;13.374;2023-07-30T01:43:34;17.00;98.70
3356;DHT22;1691;52.486;13.374;2023-07-30T01:46:00;17.00;98.70
3356;DHT22;1691;52.486;13.374;2023-07-30T01:48:27;17.00;98.70
3356;DHT22;1691;52.486;13.374;2023-07-30T01:50:54;16.90;98.70
3356;DHT22;1691;52.486;13.374;2023-07-30T01:53:21;16.90;98.70
3356;DHT22;1691;52.486;13.374;2023-07-30T01:55:48;16.90;98.70
3356;DHT22;1691;52.486;13.374;2023-07-30T01:58:14;16.80;98.70
3356;DHT22;1691;52.486;13.374;2023-07-30T02:00:41;16.80;98.70
3356;DHT22;1691;52.486;13.374;2023-07-30T02:03:08;16.80;98.70
3356;DHT22;1691;52.486;13.374;2023-07-30T02:05:35;16.80;98.70
3356;DHT22;1691;52.486;13.374;2023-07-30T02:08:02;16.80;98.70
3356;DHT22;1691;52.486;13.374;2023-07-30T02:10:29;16.70;98.70
3356;DHT22;1691;52.486;13.374;2023-07-30T02:12:56;16.70;98.70
3356;DHT22;1691;52.486;13.374;2023-07-30T02:15:22;16.60;98.70
3356;DHT22;1691;52.486;13.374;2023-07-30T02:17:49;16.60;98.70
3356;DHT22;1691;52.486;13.374;2023-07-30T02:20:16;16.60;98.70
3356;DHT22;1691;52.486;13.374;2023-07-30T02:22:43;16.60;98.70
3356;DHT22;1691;52.486;13.374;2023-07-30T02:25:10;16.50;98.70
3356;DHT22;1691;52.486;13.374;2023-07-30T02:27:37;16.50;98.70
3356;DHT22;1691;52.486;13.374;2023-07-30T02:30:04;16.50;98.70
3356;DHT22;1691;52.486;13.374;2023-07-30T02:32:31;16.50;98.70
3356;DHT22;1691;52.486;13.374;2023-07-30T02:34:58;16.50;98.70
3356;DHT22;1691;52.486;13.374;2023-07-30T02:37:25;16.60;98.70
3356;DHT22;1691;52.486;13.374;2023-07-30T02:39:52;16.60;98.70
3356;DHT22;1691;52.486;13.374;2023-07-30T02:42:18;16.60;98.70
3356;DHT22;1691;52.486;13.374;2023-07-30T02:44:46;16.70;98.70
3356;DHT22;1691;52.486;13.374;2023-07-30T02:47:12;16.70;98.70
3356;DHT22;1691;52.486;13.374;2023-07-30T02:49:39;16.60;98.70
3356;DHT22;1691;52.486;13.374;2023-07-30T02:52:06;16.60;98.70
3356;DHT22;1691;52.486;13.374;2023-07-30T02:54:33;16.60;98.70
3356;DHT22;1691;52.486;13.374;2023-07-30T02:57:00;16.60;98.70
3356;DHT22;1691;52.486;13.374;2023-07-30T02:59:27;16.60;98.70
3356;DHT22;1691;52.486;13.374;2023-07-30T03:01:54;16.60;98.70
3356;DHT22;1691;52.486;13.374;2023-07-30T03:04:21;16.60;98.70
3356;DHT22;1691;52.486;13.374;2023-07-30T03:06:48;16.50;98.70
3356;DHT22;1691;52.486;13.374;2023-07-30T03:09:14;16.50;98.70
3356;DHT22;1691;52.486;13.374;2023-07-30T03:11:41;16.50;98.70
3356;DHT22;1691;52.486;13.374;2023-07-30T03:14:08;16.50;98.70
3356;DHT22;1691;52.486;13.374;2023-07-30T03:16:35;16.50;98.70
3356;DHT22;1691;52.486;13.374;2023-07-30T03:19:02;16.50;98.70
3356;DHT22;1691;52.486;13.374;2023-07-30T03:21:28;16.50;98.70
3356;DHT22;1691;52.486;13.374;2023-07-30T03:23:55;16.50;98.70
3356;DHT22;1691;52.486;13.374;2023-07-30T03:26:22;16.50;98.70
3356;DHT22;1691;52.486;13.374;2023-07-30T03:28:49;16.50;98.70
3356;DHT22;1691;52.486;13.374;2023-07-30T03:31:16;16.50;98.70
3356;DHT22;1691;52.486;13.374;2023-07-30T03:33:43;16.40;98.70
3356;DHT22;1691;52.486;13.374;2023-07-30T03:36:13;16.40;98.70
3356;DHT22;1691;52.486;13.374;2023-07-30T03:38:41;16.40;98.70
3356;DHT22;1691;52.486;13.374;2023-07-30T03:41:08;16.40;98.70
3356;DHT22;1691;52.486;13.374;2023-07-30T03:43:35;16.40;98.70
3356;DHT22;1691;52.486;13.374;2023-07-30T03:46:01;16.40;98.70
3356;DHT22;1691;52.486;13.374;2023-07-30T03:48:29;16.50;98.70
3356;DHT22;1691;52.486;13.374;2023-07-30T03:50:56;16.50;98.70
3356;DHT22;1691;52.486;13.374;2023-07-30T03:53:23;16.50;98.70
3356;DHT22;1691;52.486;13.374;2023-07-30T03:55:50;16.50;98.70
3356;DHT22;1691;52.486;13.374;2023-07-30T03:58:16;16.60;98.70
3356;DHT22;1691;52.486;13.374;2023-07-30T04:00:43;16.60;98.70
3356;DHT22;1691;52.486;13.374;2023-07-30T04:03:10;16.70;98.70
3356;DHT22;1691;52.486;13.374;2023-07-30T04:05:37;16.70;98.70
3356;DHT22;1691;52.486;13.374;2023-07-30T04:08:04;16.80;98.70
3356;DHT22;1691;52.486;13.374;2023-07-30T04:10:31;16.80;98.70
3356;DHT22;1691;52.486;13.374;2023-07-30T04:12:58;16.90;98.70
3356;DHT22;1691;52.486;13.374;2023-07-30T04:15:24;17.00;98.70
3356;DHT22;1691;52.486;13.374;2023-07-30T04:17:51;17.10;98.70
3356;DHT22;1691;52.486;13.374;2023-07-30T04:20:18;17.20;98.70
3356;DHT22;1691;52.486;13.374;2023-07-30T04:22:45;17.20;98.70
3356;DHT22;1691;52.486;13.374;2023-07-30T04:25:12;17.40;98.70
3356;DHT22;1691;52.486;13.374;2023-07-30T04:27:39;17.50;98.70
3356;DHT22;1691;52.486;13.374;2023-07-30T04:30:06;17.70;98.70
3356;DHT22;1691;52.486;13.374;2023-07-30T04:32:33;17.80;98.70
3356;DHT22;1691;52.486;13.374;2023-07-30T04:35:01;18.00;98.70
3356;DHT22;1691;52.486;13.374;2023-07-30T04:37:29;18.10;98.70
3356;DHT22;1691;52.486;13.374;2023-07-30T04:39:56;18.30;98.70
3356;DHT22;1691;52.486;13.374;2023-07-30T04:42:23;18.40;98.70
3356;DHT22;1691;52.486;13.374;2023-07-30T04:44:50;18.50;98.70
3356;DHT22;1691;52.486;13.374;2023-07-30T04:47:17;18.70;98.70
3356;DHT22;1691;52.486;13.374;2023-07-30T04:49:44;18.90;98.70
3356;DHT22;1691;52.486;13.374;2023-07-30T04:52:10;19.20;98.70
3356;DHT22;1691;52.486;13.374;2023-07-30T04:54:37;19.60;98.70
3356;DHT22;1691;52.486;13.374;2023-07-30T04:57:04;20.10;98.70
3356;DHT22;1691;52.486;13.374;2023-07-30T04:59:32;20.80;98.70
3356;DHT22;1691;52.486;13.374;2023-07-30T05:02:00;21.50;98.70
3356;DHT22;1691;52.486;13.374;2023-07-30T05:04:28;22.20;98.70
3356;DHT22;1691;52.486;13.374;2023-07-30T05:06:54;22.90;98.70
3356;DHT22;1691;52.486;13.374;2023-07-30T05:09:21;23.60;97.80
3356;DHT22;1691;52.486;13.374;2023-07-30T05:11:48;24.10;95.90
3356;DHT22;1691;52.486;13.374;2023-07-30T05:14:15;24.70;93.90
3356;DHT22;1691;52.486;13.374;2023-07-30T05:16:42;25.10;92.30
3356;DHT22;1691;52.486;13.374;2023-07-30T05:19:08;25.50;90.80
3356;DHT22;1691;52.486;13.374;2023-07-30T05:21:35;25.80;89.00
3356;DHT22;1691;52.486;13.374;2023-07-30T05:24:03;26.10;86.70
3356;DHT22;1691;52.486;13.374;2023-07-30T05:26:30;26.30;84.90
3356;DHT22;1691;52.486;13.374;2023-07-30T05:28:56;26.60;83.40
3356;DHT22;1691;52.486;13.374;2023-07-30T05:31:23;26.80;81.50
3356;DHT22;1691;52.486;13.374;2023-07-30T05:33:50;27.10;80.00
3356;DHT22;1691;52.486;13.374;2023-07-30T05:36:17;27.40;78.50
3356;DHT22;1691;52.486;13.374;2023-07-30T05:38:44;27.80;76.50
3356;DHT22;1691;52.486;13.374;2023-07-30T05:41:10;28.10;75.00
3356;DHT22;1691;52.486;13.374;2023-07-30T05:43:37;28.30;73.30
3356;DHT22;1691;52.486;13.374;2023-07-30T05:46:04;28.60;71.60
3356;DHT22;1691;52.486;13.374;2023-07-30T05:48:31;28.80;70.50
3356;DHT22;1691;52.486;13.374;2023-07-30T05:50:58;28.90;69.40
3356;DHT22;1691;52.486;13.374;2023-07-30T05:53:25;28.80;68.50
3356;DHT22;1691;52.486;13.374;2023-07-30T05:55:51;28.50;68.30
3356;DHT22;1691;52.486;13.374;2023-07-30T05:58:18;28.50;68.30
3356;DHT22;1691;52.486;13.374;2023-07-30T06:00:45;28.70;67.50
3356;DHT22;1691;52.486;13.374;2023-07-30T06:03:12;28.90;66.60
3356;DHT22;1691;52.486;13.374;2023-07-30T06:05:42;29.20;65.70
3356;DHT22;1691;52.486;13.374;2023-07-30T06:08:09;29.50;64.40
3356;DHT22;1691;52.486;13.374;2023-07-30T06:10:37;29.70;63.60
3356;DHT22;1691;52.486;13.374;2023-07-30T06:13:04;29.70;63.10
3356;DHT22;1691;52.486;13.374;2023-07-30T06:15:33;29.60;62.70
3356;DHT22;1691;52.486;13.374;2023-07-30T06:18:01;29.70;62.70
3356;DHT22;1691;52.486;13.374;2023-07-30T06:20:30;30.10;61.80
3356;DHT22;1691;52.486;13.374;2023-07-30T06:22:56;30.00;61.00
3356;DHT22;1691;52.486;13.374;2023-07-30T06:25:23;29.50;61.20
3356;DHT22;1691;52.486;13.374;2023-07-30T06:27:50;28.80;62.30
3356;DHT22;1691;52.486;13.374;2023-07-30T06:30:18;28.10;63.80
3356;DHT22;1691;52.486;13.374;2023-07-30T06:32:45;27.50;65.30
3356;DHT22;1691;52.486;13.374;2023-07-30T06:35:12;27.10;66.80
3356;DHT22;1691;52.486;13.374;2023-07-30T06:37:38;27.00;67.70
3356;DHT22;1691;52.486;13.374;2023-07-30T06:40:06;27.00;68.10
3356;DHT22;1691;52.486;13.374;2023-07-30T06:42:33;27.00;68.30
3356;DHT22;1691;52.486;13.374;2023-07-30T06:45:00;27.10;68.10
3356;DHT22;1691;52.486;13.374;2023-07-30T06:47:27;27.00;68.10
3356;DHT22;1691;52.486;13.374;2023-07-30T06:49:54;26.80;68.50
3356;DHT22;1691;52.486;13.374;2023-07-30T06:52:21;26.60;68.80
3356;DHT22;1691;52.486;13.374;2023-07-30T06:54:48;26.30;69.80
3356;DHT22;1691;52.486;13.374;2023-07-30T06:57:15;26.00;70.50
3356;DHT22;1691;52.486;13.374;2023-07-30T06:59:42;26.00;71.30
3356;DHT22;1691;52.486;13.374;2023-07-30T07:02:09;26.20;71.30
3356;DHT22;1691;52.486;13.374;2023-07-30T07:04:35;26.40;70.90
3356;DHT22;1691;52.486;13.374;2023-07-30T07:07:02;26.60;70.70
3356;DHT22;1691;52.486;13.374;2023-07-30T07:09:30;27.20;70.00
3356;DHT22;1691;52.486;13.374;2023-07-30T07:11:58;28.10;68.10
3356;DHT22;1691;52.486;13.374;2023-07-30T07:14:25;29.00;65.90
3356;DHT22;1691;52.486;13.374;2023-07-30T07:16:53;29.90;63.40
3356;DHT22;1691;52.486;13.374;2023-07-30T07:19:20;30.60;61.00
3356;DHT22;1691;52.486;13.374;2023-07-30T07:21:47;31.10;59.50
3356;DHT22;1691;52.486;13.374;2023-07-30T07:24:14;31.60;58.40
3356;DHT22;1691;52.486;13.374;2023-07-30T07:26:41;32.00;57.20
3356;DHT22;1691;52.486;13.374;2023-07-30T07:29:08;32.40;56.20
3356;DHT22;1691;52.486;13.374;2023-07-30T07:31:34;32.90;55.20
3356;DHT22;1691;52.486;13.374;2023-07-30T07:34:02;33.30;54.20
3356;DHT22;1691;52.486;13.374;2023-07-30T07:36:28;33.70;53.00
3356;DHT22;1691;52.486;13.374;2023-07-30T07:38:55;34.30;51.80
3356;DHT22;1691;52.486;13.374;2023-07-30T07:41:22;34.40;51.00
3356;DHT22;1691;52.486;13.374;2023-07-30T07:43:49;34.40;50.50
3356;DHT22;1691;52.486;13.374;2023-07-30T07:46:16;34.50;50.20
3356;DHT22;1691;52.486;13.374;2023-07-30T07:48:43;34.70;49.60
3356;DHT22;1691;52.486;13.374;2023-07-30T07:51:11;35.00;48.90
3356;DHT22;1691;52.486;13.374;2023-07-30T07:53:38;35.30;48.10
3356;DHT22;1691;52.486;13.374;2023-07-30T07:56:05;35.50;47.60
3356;DHT22;1691;52.486;13.374;2023-07-30T07:58:32;35.70;46.90
3356;DHT22;1691;52.486;13.374;2023-07-30T08:00:59;35.90;46.40
3356;DHT22;1691;52.486;13.374;2023-07-30T08:03:26;36.00;40.40
3356;DHT22;1691;52.486;13.374;2023-07-30T08:05:55;36.00;42.50
3356;DHT22;1691;52.486;13.374;2023-07-30T08:08:23;35.70;43.80
3356;DHT22;1691;52.486;13.374;2023-07-30T08:10:52;34.80;45.50
3356;DHT22;1691;52.486;13.374;2023-07-30T08:13:19;33.80;45.60
3356;DHT22;1691;52.486;13.374;2023-07-30T08:15:50;33.40;47.50
3356;DHT22;1691;52.486;13.374;2023-07-30T08:18:16;33.30;48.70
3356;DHT22;1691;52.486;13.374;2023-07-30T08:20:43;33.10;49.30
3356;DHT22;1691;52.486;13.374;2023-07-30T08:23:10;33.10;49.30
3356;DHT22;1691;52.486;13.374;2023-07-30T08:25:37;32.70;49.60
3356;DHT22;1691;52.486;13.374;2023-07-30T08:28:04;32.70;49.90
3356;DHT22;1691;52.486;13.374;2023-07-30T08:30:31;33.00;49.60
3356;DHT22;1691;52.486;13.374;2023-07-30T08:32:57;32.90;49.30
3356;DHT22;1691;52.486;13.374;2023-07-30T08:35:24;32.60;49.60
3356;DHT22;1691;52.486;13.374;2023-07-30T08:37:51;32.50;49.60
3356;DHT22;1691;52.486;13.374;2023-07-30T08:40:18;32.30;49.60
3356;DHT22;1691;52.486;13.374;2023-07-30T08:42:44;32.40;49.50
3356;DHT22;1691;52.486;13.374;2023-07-30T08:45:11;32.90;48.50
3356;DHT22;1691;52.486;13.374;2023-07-30T08:47:39;32.80;47.90
3356;DHT22;1691;52.486;13.374;2023-07-30T08:50:07;32.60;48.10
3356;DHT22;1691;52.486;13.374;2023-07-30T08:52:35;32.30;48.20
3356;DHT22;1691;52.486;13.374;2023-07-30T08:55:03;32.10;48.10
3356;DHT22;1691;52.486;13.374;2023-07-30T08:57:30;32.20;48.10
3356;DHT22;1691;52.486;13.374;2023-07-30T09:00:03;32.70;47.50
3356;DHT22;1691;52.486;13.374;2023-07-30T09:02:37;33.30;46.10
3356;DHT22;1691;52.486;13.374;2023-07-30T09:05:04;34.10;44.90
3356;DHT22;1691;52.486;13.374;2023-07-30T09:07:32;35.00;43.50
3356;DHT22;1691;52.486;13.374;2023-07-30T09:09:59;35.80;42.10
3356;DHT22;1691;52.486;13.374;2023-07-30T09:12:33;36.60;40.90
3356;DHT22;1691;52.486;13.374;2023-07-30T09:15:02;37.40;39.20
3356;DHT22;1691;52.486;13.374;2023-07-30T09:17:29;38.00;37.90
3356;DHT22;1691;52.486;13.374;2023-07-30T09:19:59;38.50;37.20
3356;DHT22;1691;52.486;13.374;2023-07-30T09:22:27;39.10;35.80
3356;DHT22;1691;52.486;13.374;2023-07-30T09:24:57;39.50;35.00
3356;DHT22;1691;52.486;13.374;2023-07-30T09:27:25;39.80;33.60
3356;DHT22;1691;52.486;13.374;2023-07-30T09:29:54;39.40;33.60
3356;DHT22;1691;52.486;13.374;2023-07-30T09:32:29;38.40;33.80
3356;DHT22;1691;52.486;13.374;2023-07-30T09:35:12;37.50;33.30
3356;DHT22;1691;52.486;13.374;2023-07-30T09:37:40;36.20;34.90
3356;DHT22;1691;52.486;13.374;2023-07-30T09:40:10;35.40;36.90
3356;DHT22;1691;52.486;13.374;2023-07-30T09:42:39;34.60;37.90
3356;DHT22;1691;52.486;13.374;2023-07-30T09:45:23;34.30;39.00
3356;DHT22;1691;52.486;13.374;2023-07-30T09:47:52;34.80;38.20
3356;DHT22;1691;52.486;13.374;2023-07-30T09:50:20;35.60;37.90
3356;DHT22;1691;52.486;13.374;2023-07-30T09:52:47;36.40;37.30
3356;DHT22;1691;52.486;13.374;2023-07-30T09:55:15;37.00;36.40
3356;DHT22;1691;52.486;13.374;2023-07-30T09:57:43;37.40;35.60
3356;DHT22;1691;52.486;13.374;2023-07-30T10:00:10;37.00;35.90
3356;DHT22;1691;52.486;13.374;2023-07-30T10:02:39;36.40;36.50
3356;DHT22;1691;52.486;13.374;2023-07-30T10:05:16;36.00;36.50
3356;DHT22;1691;52.486;13.374;2023-07-30T10:07:51;35.70;36.20
3356;DHT22;1691;52.486;13.374;2023-07-30T10:10:21;35.10;37.20
3356;DHT22;1691;52.486;13.374;2023-07-30T10:12:50;34.50;38.20
3356;DHT22;1691;52.486;13.374;2023-07-30T10:15:21;33.80;38.50
3356;DHT22;1691;52.486;13.374;2023-07-30T10:17:53;33.30;39.20
3356;DHT22;1691;52.486;13.374;2023-07-30T10:20:27;33.30;39.00
3356;DHT22;1691;52.486;13.374;2023-07-30T10:22:57;33.30;38.90
3356;DHT22;1691;52.486;13.374;2023-07-30T10:27:58;33.40;38.50
3356;DHT22;1691;52.486;13.374;2023-07-30T10:30:31;33.40;38.90
3356;DHT22;1691;52.486;13.374;2023-07-30T10:33:09;33.30;38.70
3356;DHT22;1691;52.486;13.374;2023-07-30T10:35:39;33.30;38.70
3356;DHT22;1691;52.486;13.374;2023-07-30T10:38:13;33.50;39.00
3356;DHT22;1691;52.486;13.374;2023-07-30T10:40:41;33.60;38.40
3356;DHT22;1691;52.486;13.374;2023-07-30T10:43:18;33.60;38.90
3356;DHT22;1691;52.486;13.374;2023-07-30T10:45:49;33.30;38.70
3356;DHT22;1691;52.486;13.374;2023-07-30T10:48:17;33.10;39.20
3356;DHT22;1691;52.486;13.374;2023-07-30T10:50:45;33.00;39.60
3356;DHT22;1691;52.486;13.374;2023-07-30T10:53:15;32.80;39.80
3356;DHT22;1691;52.486;13.374;2023-07-30T10:55:43;32.60;40.10
3356;DHT22;1691;52.486;13.374;2023-07-30T10:58:10;32.70;40.40
3356;DHT22;1691;52.486;13.374;2023-07-30T11:00:37;32.90;40.40
3356;DHT22;1691;52.486;13.374;2023-07-30T11:03:04;33.20;40.20
3356;DHT22;1691;52.486;13.374;2023-07-30T11:05:31;33.40;40.10
3356;DHT22;1691;52.486;13.374;2023-07-30T11:07:58;33.50;40.10
3356;DHT22;1691;52.486;13.374;2023-07-30T11:10:25;33.60;39.90
3356;DHT22;1691;52.486;13.374;2023-07-30T11:12:52;33.30;40.10
3356;DHT22;1691;52.486;13.374;2023-07-30T11:15:19;32.90;40.10
3356;DHT22;1691;52.486;13.374;2023-07-30T11:17:46;32.40;40.50
3356;DHT22;1691;52.486;13.374;2023-07-30T11:20:25;32.00;40.90
3356;DHT22;1691;52.486;13.374;2023-07-30T11:22:56;31.60;40.50
3356;DHT22;1691;52.486;13.374;2023-07-30T11:25:23;31.30;41.00
3356;DHT22;1691;52.486;13.374;2023-07-30T11:27:50;31.00;40.40
3356;DHT22;1691;52.486;13.374;2023-07-30T11:30:18;30.70;40.10
3356;DHT22;1691;52.486;13.374;2023-07-30T11:32:45;30.30;40.20
3356;DHT22;1691;52.486;13.374;2023-07-30T11:35:14;29.90;40.70
3356;DHT22;1691;52.486;13.374;2023-07-30T11:37:42;29.70;41.30
3356;DHT22;1691;52.486;13.374;2023-07-30T11:40:11;29.70;41.80
3356;DHT22;1691;52.486;13.374;2023-07-30T11:42:38;29.50;41.60
3356;DHT22;1691;52.486;13.374;2023-07-30T11:47:47;29.10;41.60
3356;DHT22;1691;52.486;13.374;2023-07-30T11:50:15;29.00;42.50
3356;DHT22;1691;52.486;13.374;2023-07-30T11:52:55;28.90;43.00
3356;DHT22;1691;52.486;13.374;2023-07-30T11:55:22;28.70;43.20
3356;DHT22;1691;52.486;13.374;2023-07-30T11:57:51;28.60;44.10
3356;DHT22;1691;52.486;13.374;2023-07-30T12:00:21;28.40;44.90
3356;DHT22;1691;52.486;13.374;2023-07-30T12:02:48;28.30;45.20
3356;DHT22;1691;52.486;13.374;2023-07-30T12:05:16;28.10;45.60
3356;DHT22;1691;52.486;13.374;2023-07-30T12:07:47;28.10;46.10
3356;DHT22;1691;52.486;13.374;2023-07-30T12:10:14;28.00;46.40
3356;DHT22;1691;52.486;13.374;2023-07-30T12:12:44;28.00;46.50
3356;DHT22;1691;52.486;13.374;2023-07-30T12:15:12;28.00;46.90
3356;DHT22;1691;52.486;13.374;2023-07-30T12:17:39;28.00;47.00
3356;DHT22;1691;52.486;13.374;2023-07-30T12:20:06;27.90;46.70
3356;DHT22;1691;52.486;13.374;2023-07-30T12:22:34;27.90;46.20
3356;DHT22;1691;52.486;13.374;2023-07-30T12:25:05;27.80;46.10
3356;DHT22;1691;52.486;13.374;2023-07-30T12:27:32;27.80;46.40
3356;DHT22;1691;52.486;13.374;2023-07-30T12:29:59;27.80;46.40
3356;DHT22;1691;52.486;13.374;2023-07-30T12:32:25;27.90;46.70
3356;DHT22;1691;52.486;13.374;2023-07-30T12:34:54;27.90;47.00
3356;DHT22;1691;52.486;13.374;2023-07-30T12:37:22;27.90;47.30
3356;DHT22;1691;52.486;13.374;2023-07-30T12:39:49;27.90;47.60
3356;DHT22;1691;52.486;13.374;2023-07-30T12:42:15;28.00;47.80
3356;DHT22;1691;52.486;13.374;2023-07-30T12:44:42;28.00;47.80
3356;DHT22;1691;52.486;13.374;2023-07-30T12:47:09;27.90;47.90
3356;DHT22;1691;52.486;13.374;2023-07-30T12:49:36;27.90;48.10
3356;DHT22;1691;52.486;13.374;2023-07-30T12:52:03;27.90;48.10
3356;DHT22;1691;52.486;13.374;2023-07-30T12:54:30;27.90;47.90
3356;DHT22;1691;52.486;13.374;2023-07-30T12:56:56;27.80;47.80
3356;DHT22;1691;52.486;13.374;2023-07-30T12:59:23;27.90;47.90
3356;DHT22;1691;52.486;13.374;2023-07-30T13:01:50;27.90;48.10
3356;DHT22;1691;52.486;13.374;2023-07-30T13:04:17;27.90;48.10
3356;DHT22;1691;52.486;13.374;2023-07-30T13:06:44;27.90;48.10
3356;DHT22;1691;52.486;13.374;2023-07-30T13:09:11;28.00;48.10
3356;DHT22;1691;52.486;13.374;2023-07-30T13:11:38;28.00;47.90
3356;DHT22;1691;52.486;13.374;2023-07-30T13:14:05;28.00;47.60
3356;DHT22;1691;52.486;13.374;2023-07-30T13:16:32;28.00;46.50
3356;DHT22;1691;52.486;13.374;2023-07-30T13:18:59;28.00;45.80
3356;DHT22;1691;52.486;13.374;2023-07-30T13:21:26;28.00;45.50
3356;DHT22;1691;52.486;13.374;2023-07-30T13:23:53;28.00;45.50
3356;DHT22;1691;52.486;13.374;2023-07-30T13:26:19;28.00;45.30
3356;DHT22;1691;52.486;13.374;2023-07-30T13:28:47;28.00;45.20
3356;DHT22;1691;52.486;13.374;2023-07-30T13:31:14;28.10;45.20
3356;DHT22;1691;52.486;13.374;2023-07-30T13:33:41;28.10;45.00
3356;DHT22;1691;52.486;13.374;2023-07-30T13:36:08;28.20;44.90
3356;DHT22;1691;52.486;13.374;2023-07-30T13:38:35;28.10;44.50
3356;DHT22;1691;52.486;13.374;2023-07-30T13:41:02;28.10;44.40
3356;DHT22;1691;52.486;13.374;2023-07-30T13:43:29;27.90;44.20
3356;DHT22;1691;52.486;13.374;2023-07-30T13:45:56;27.80;44.20
3356;DHT22;1691;52.486;13.374;2023-07-30T13:48:24;27.70;43.90
3356;DHT22;1691;52.486;13.374;2023-07-30T13:50:51;27.60;43.60
3356;DHT22;1691;52.486;13.374;2023-07-30T13:53:18;27.60;43.60
3356;DHT22;1691;52.486;13.374;2023-07-30T13:55:45;27.50;43.60
3356;DHT22;1691;52.486;13.374;2023-07-30T13:58:12;27.50;43.20
3356;DHT22;1691;52.486;13.374;2023-07-30T14:00:41;27.30;43.20
3356;DHT22;1691;52.486;13.374;2023-07-30T14:03:08;27.30;43.50
3356;DHT22;1691;52.486;13.374;2023-07-30T14:05:37;27.20;43.30
3356;DHT22;1691;52.486;13.374;2023-07-30T14:08:04;27.10;43.60
3356;DHT22;1691;52.486;13.374;2023-07-30T14:10:30;27.10;43.60
3356;DHT22;1691;52.486;13.374;2023-07-30T14:12:57;26.80;43.80
3356;DHT22;1691;52.486;13.374;2023-07-30T14:15:24;26.60;44.20
3356;DHT22;1691;52.486;13.374;2023-07-30T14:17:51;26.50;45.00
3356;DHT22;1691;52.486;13.374;2023-07-30T14:20:19;26.30;45.60
3356;DHT22;1691;52.486;13.374;2023-07-30T14:22:45;26.10;46.20
3356;DHT22;1691;52.486;13.374;2023-07-30T14:25:12;26.00;47.00
3356;DHT22;1691;52.486;13.374;2023-07-30T14:27:39;25.90;48.10
3356;DHT22;1691;52.486;13.374;2023-07-30T14:30:06;25.80;49.60
3356;DHT22;1691;52.486;13.374;2023-07-30T14:32:33;25.60;51.00
3356;DHT22;1691;52.486;13.374;2023-07-30T14:35:00;25.30;51.80
3356;DHT22;1691;52.486;13.374;2023-07-30T14:37:27;25.10;53.00
3356;DHT22;1691;52.486;13.374;2023-07-30T14:39:54;24.80;54.10
3356;DHT22;1691;52.486;13.374;2023-07-30T14:42:21;24.60;55.30
3356;DHT22;1691;52.486;13.374;2023-07-30T14:44:47;24.30;57.00
3356;DHT22;1691;52.486;13.374;2023-07-30T14:47:14;24.10;58.40
3356;DHT22;1691;52.486;13.374;2023-07-30T14:49:41;23.80;59.80
3356;DHT22;1691;52.486;13.374;2023-07-30T14:52:08;23.60;60.80
3356;DHT22;1691;52.486;13.374;2023-07-30T14:54:35;23.40;61.80
3356;DHT22;1691;52.486;13.374;2023-07-30T14:57:01;23.20;62.50
3356;DHT22;1691;52.486;13.374;2023-07-30T14:59:28;23.10;63.30
3356;DHT22;1691;52.486;13.374;2023-07-30T15:01:55;23.00;65.10
3356;DHT22;1691;52.486;13.374;2023-07-30T15:04:22;22.70;66.80
3356;DHT22;1691;52.486;13.374;2023-07-30T15:06:50;22.40;68.50
3356;DHT22;1691;52.486;13.374;2023-07-30T15:09:16;22.20;70.30
3356;DHT22;1691;52.486;13.374;2023-07-30T15:11:43;22.10;71.60
3356;DHT22;1691;52.486;13.374;2023-07-30T15:14:10;22.00;73.10
3356;DHT22;1691;52.486;13.374;2023-07-30T15:16:37;21.90;74.80
3356;DHT22;1691;52.486;13.374;2023-07-30T15:19:04;21.70;75.70
3356;DHT22;1691;52.486;13.374;2023-07-30T15:21:31;21.60;76.90
3356;DHT22;1691;52.486;13.374;2023-07-30T15:23:58;21.40;78.20
3356;DHT22;1691;52.486;13.374;2023-07-30T15:26:25;21.40;79.50
3356;DHT22;1691;52.486;13.374;2023-07-30T15:28:52;21.40;80.40
3356;DHT22;1691;52.486;13.374;2023-07-30T15:31:19;21.50;80.40
3356;DHT22;1691;52.486;13.374;2023-07-30T15:33:46;21.60;80.40
3356;DHT22;1691;52.486;13.374;2023-07-30T15:36:13;21.70;80.60
3356;DHT22;1691;52.486;13.374;2023-07-30T15:38:41;21.80;80.60
3356;DHT22;1691;52.486;13.374;2023-07-30T15:41:07;21.80;80.40
3356;DHT22;1691;52.486;13.374;2023-07-30T15:43:34;21.90;80.20
3356;DHT22;1691;52.486;13.374;2023-07-30T15:46:01;21.90;80.20
3356;DHT22;1691;52.486;13.374;2023-07-30T15:48:32;22.00;80.00
3356;DHT22;1691;52.486;13.374;2023-07-30T15:51:03;22.00;79.80